sensor_id;sensor_type;location;lat;lon;timestamp;pressure;altitude;pressure_sealevel;temperature;humidity
31717;BME280;18301;51.076;17.046;2023-04-06T00:01:44;100682.19;;;1.49;77.41
31717;BME280;18301;51.076;17.046;2023-04-06T00:06:48;100681.47;;;1.44;76.91
31717;BME280;18301;51.076;17.046;2023-04-06T00:11:49;100688.84;;;1.34;77.37
31717;BME280;18301;51.076;17.046;2023-04-06T00:16:51;100679.19;;;1.32;77.24
31717;BME280;18301;51.076;17.046;2023-04-06T00:21:52;100688.19;;;1.28;77.08
31717;BME280;18301;51.076;17.046;2023-04-06T00:26:54;100681.03;;;1.30;77.16
31717;BME280;18301;51.076;17.046;2023-04-06T00:31:56;100668.75;;;1.26;76.95
31717;BME280;18301;51.076;17.046;2023-04-06T00:36:57;100677.75;;;1.22;77.03
31717;BME280;18301;51.076;17.046;2023-04-06T00:41:59;100674.44;;;1.13;77.22
31717;BME280;18301;51.076;17.046;2023-04-06T00:47:01;100672.69;;;1.12;76.69
31717;BME280;18301;51.076;17.046;2023-04-06T00:52:03;100674.81;;;1.01;77.84
31717;BME280;18301;51.076;17.046;2023-04-06T00:57:05;100671.63;;;0.90;77.83
31717;BME280;18301;51.076;17.046;2023-04-06T01:02:07;100676.94;;;0.90;78.28
31717;BME280;18301;51.076;17.046;2023-04-06T01:07:09;100684.03;;;0.89;78.91
31717;BME280;18301;51.076;17.046;2023-04-06T01:12:11;100680.31;;;0.95;79.13
31717;BME280;18301;51.076;17.046;2023-04-06T01:17:12;100671.34;;;0.99;79.10
31717;BME280;18301;51.076;17.046;2023-04-06T01:22:16;100665.38;;;0.91;78.88
31717;BME280;18301;51.076;17.046;2023-04-06T01:27:17;100677.75;;;0.92;78.48
31717;BME280;18301;51.076;17.046;2023-04-06T01:32:19;100674.22;;;0.91;78.51
31717;BME280;18301;51.076;17.046;2023-04-06T01:37:20;100669.84;;;0.89;78.68
31717;BME280;18301;51.076;17.046;2023-04-06T01:42:22;100669.69;;;0.95;78.79
31717;BME280;18301;51.076;17.046;2023-04-06T01:47:23;100662.72;;;0.91;78.33
31717;BME280;18301;51.076;17.046;2023-04-06T01:52:25;100670.94;;;0.83;78.11
31717;BME280;18301;51.076;17.046;2023-04-06T01:57:26;100664.81;;;0.80;77.70
31717;BME280;18301;51.076;17.046;2023-04-06T02:02:28;100675.44;;;0.80;77.85
31717;BME280;18301;51.076;17.046;2023-04-06T02:07:30;100673.84;;;0.74;77.53
31717;BME280;18301;51.076;17.046;2023-04-06T02:12:31;100664.31;;;0.67;77.50
31717;BME280;18301;51.076;17.046;2023-04-06T02:17:33;100667.03;;;0.65;77.73
31717;BME280;18301;51.076;17.046;2023-04-06T02:22:35;100665.41;;;0.60;77.41
31717;BME280;18301;51.076;17.046;2023-04-06T02:27:36;100664.56;;;0.58;77.70
31717;BME280;18301;51.076;17.046;2023-04-06T02:32:38;100663.53;;;0.63;77.49
31717;BME280;18301;51.076;17.046;2023-04-06T02:37:39;100664.47;;;0.61;77.43
31717;BME280;18301;51.076;17.046;2023-04-06T02:42:41;100662.78;;;0.58;77.74
31717;BME280;18301;51.076;17.046;2023-04-06T02:47:42;100685.03;;;0.54;77.56
31717;BME280;18301;51.076;17.046;2023-04-06T02:52:44;100676.22;;;0.52;78.01
31717;BME280;18301;51.076;17.046;2023-04-06T02:57:45;100683.31;;;0.53;77.92
31717;BME280;18301;51.076;17.046;2023-04-06T03:02:47;100689.03;;;0.38;78.18
31717;BME280;18301;51.076;17.046;2023-04-06T03:07:48;100688.91;;;0.42;78.74
31717;BME280;18301;51.076;17.046;2023-04-06T03:12:50;100683.41;;;0.49;78.20
31717;BME280;18301;51.076;17.046;2023-04-06T03:17:51;100691.28;;;0.53;78.55
31717;BME280;18301;51.076;17.046;2023-04-06T03:22:53;100694.78;;;0.54;78.04
31717;BME280;18301;51.076;17.046;2023-04-06T03:27:54;100694.63;;;0.60;77.76
31717;BME280;18301;51.076;17.046;2023-04-06T03:32:56;100699.16;;;0.56;77.44
31717;BME280;18301;51.076;17.046;2023-04-06T03:37:57;100702.88;;;0.49;77.87
31717;BME280;18301;51.076;17.046;2023-04-06T03:42:59;100703.94;;;0.43;78.28
31717;BME280;18301;51.076;17.046;2023-04-06T03:48:00;100715.16;;;0.53;77.55
31717;BME280;18301;51.076;17.046;2023-04-06T03:53:02;100713.41;;;0.52;77.59
31717;BME280;18301;51.076;17.046;2023-04-06T03:58:06;100710.84;;;0.49;77.90
31717;BME280;18301;51.076;17.046;2023-04-06T04:03:07;100714.47;;;0.47;77.49
31717;BME280;18301;51.076;17.046;2023-04-06T04:08:09;100710.91;;;0.48;77.18
31717;BME280;18301;51.076;17.046;2023-04-06T04:13:11;100718.00;;;0.45;77.00
31717;BME280;18301;51.076;17.046;2023-04-06T04:18:12;100715.50;;;0.41;76.81
31717;BME280;18301;51.076;17.046;2023-04-06T04:23:13;100720.06;;;0.36;76.85
31717;BME280;18301;51.076;17.046;2023-04-06T04:28:15;100731.69;;;0.32;76.97
31717;BME280;18301;51.076;17.046;2023-04-06T04:33:16;100717.63;;;0.28;77.11
31717;BME280;18301;51.076;17.046;2023-04-06T04:38:18;100718.50;;;0.27;76.92
31717;BME280;18301;51.076;17.046;2023-04-06T04:43:19;100714.06;;;0.28;76.95
31717;BME280;18301;51.076;17.046;2023-04-06T04:48:21;100720.13;;;0.33;77.17
31717;BME280;18301;51.076;17.046;2023-04-06T04:53:22;100722.72;;;0.36;77.15
31717;BME280;18301;51.076;17.046;2023-04-06T04:58:25;100726.84;;;0.46;77.20
31717;BME280;18301;51.076;17.046;2023-04-06T05:03:27;100729.16;;;0.58;76.77
31717;BME280;18301;51.076;17.046;2023-04-06T05:08:28;100724.44;;;0.69;77.21
31717;BME280;18301;51.076;17.046;2023-04-06T05:13:30;100722.38;;;0.81;77.34
31717;BME280;18301;51.076;17.046;2023-04-06T05:18:32;100726.03;;;1.06;77.18
31717;BME280;18301;51.076;17.046;2023-04-06T05:23:33;100725.59;;;1.22;77.42
31717;BME280;18301;51.076;17.046;2023-04-06T05:28:35;100726.84;;;1.38;77.25
31717;BME280;18301;51.076;17.046;2023-04-06T05:33:37;100735.38;;;1.49;77.19
31717;BME280;18301;51.076;17.046;2023-04-06T05:38:39;100735.28;;;1.52;76.70
31717;BME280;18301;51.076;17.046;2023-04-06T05:43:40;100740.13;;;1.68;77.17
31717;BME280;18301;51.076;17.046;2023-04-06T05:48:41;100730.63;;;1.87;76.92
31717;BME280;18301;51.076;17.046;2023-04-06T05:53:43;100742.03;;;1.91;77.11
31717;BME280;18301;51.076;17.046;2023-04-06T05:58:44;100736.13;;;1.81;76.50
31717;BME280;18301;51.076;17.046;2023-04-06T06:03:46;100733.38;;;1.84;76.45
31717;BME280;18301;51.076;17.046;2023-04-06T06:08:47;100732.19;;;1.94;76.52
31717;BME280;18301;51.076;17.046;2023-04-06T06:13:49;100741.53;;;2.06;76.41
31717;BME280;18301;51.076;17.046;2023-04-06T06:18:50;100743.75;;;2.20;75.97
31717;BME280;18301;51.076;17.046;2023-04-06T06:23:52;100741.72;;;2.28;75.64
31717;BME280;18301;51.076;17.046;2023-04-06T06:28:55;100734.94;;;2.43;75.55
31717;BME280;18301;51.076;17.046;2023-04-06T06:33:57;100734.94;;;2.68;75.19
31717;BME280;18301;51.076;17.046;2023-04-06T06:38:58;100738.38;;;2.96;74.43
31717;BME280;18301;51.076;17.046;2023-04-06T06:44:01;100737.91;;;3.09;74.47
31717;BME280;18301;51.076;17.046;2023-04-06T06:49:03;100730.44;;;3.18;73.82
31717;BME280;18301;51.076;17.046;2023-04-06T06:54:05;100730.72;;;3.34;73.71
31717;BME280;18301;51.076;17.046;2023-04-06T06:59:07;100721.16;;;3.51;73.12
31717;BME280;18301;51.076;17.046;2023-04-06T07:04:09;100728.31;;;3.72;72.76
31717;BME280;18301;51.076;17.046;2023-04-06T07:09:11;100720.19;;;3.75;72.44
31717;BME280;18301;51.076;17.046;2023-04-06T07:14:12;100726.78;;;3.88;72.29
31717;BME280;18301;51.076;17.046;2023-04-06T07:19:14;100718.53;;;4.15;71.97
31717;BME280;18301;51.076;17.046;2023-04-06T07:24:15;100731.81;;;4.38;71.85
31717;BME280;18301;51.076;17.046;2023-04-06T07:29:17;100735.81;;;4.49;71.06
31717;BME280;18301;51.076;17.046;2023-04-06T07:34:19;100740.28;;;4.69;70.46
31717;BME280;18301;51.076;17.046;2023-04-06T07:39:20;100741.03;;;4.72;69.21
31717;BME280;18301;51.076;17.046;2023-04-06T07:44:22;100753.03;;;4.82;68.45
31717;BME280;18301;51.076;17.046;2023-04-06T07:49:23;100751.81;;;5.10;68.21
31717;BME280;18301;51.076;17.046;2023-04-06T07:54:25;100739.22;;;5.12;67.49
31717;BME280;18301;51.076;17.046;2023-04-06T07:59:26;100743.16;;;5.43;62.73
31717;BME280;18301;51.076;17.046;2023-04-06T08:04:28;100741.13;;;5.48;56.33
31717;BME280;18301;51.076;17.046;2023-04-06T08:09:29;100747.00;;;5.56;54.63
31717;BME280;18301;51.076;17.046;2023-04-06T08:14:31;100740.31;;;5.84;58.39
31717;BME280;18301;51.076;17.046;2023-04-06T08:19:32;100743.13;;;5.99;57.80
31717;BME280;18301;51.076;17.046;2023-04-06T08:24:34;100757.94;;;6.26;56.05
31717;BME280;18301;51.076;17.046;2023-04-06T08:29:36;100745.75;;;6.01;55.08
31717;BME280;18301;51.076;17.046;2023-04-06T08:34:37;100745.59;;;6.21;54.86
31717;BME280;18301;51.076;17.046;2023-04-06T08:39:39;100744.97;;;6.34;53.38
31717;BME280;18301;51.076;17.046;2023-04-06T08:44:40;100746.28;;;6.44;53.41
31717;BME280;18301;51.076;17.046;2023-04-06T08:49:44;100742.31;;;6.51;51.03
31717;BME280;18301;51.076;17.046;2023-04-06T08:54:46;100749.56;;;6.66;50.66
31717;BME280;18301;51.076;17.046;2023-04-06T08:59:49;100745.44;;;6.77;47.86
31717;BME280;18301;51.076;17.046;2023-04-06T09:04:53;100738.88;;;7.00;48.85
31717;BME280;18301;51.076;17.046;2023-04-06T09:09:55;100736.84;;;7.21;47.37
31717;BME280;18301;51.076;17.046;2023-04-06T09:14:57;100729.84;;;7.18;49.31
31717;BME280;18301;51.076;17.046;2023-04-06T09:20:00;100721.97;;;7.47;49.75
31717;BME280;18301;51.076;17.046;2023-04-06T09:25:02;100714.03;;;7.77;49.97
31717;BME280;18301;51.076;17.046;2023-04-06T09:30:05;100729.84;;;7.97;45.05
31717;BME280;18301;51.076;17.046;2023-04-06T09:35:08;100722.22;;;8.05;48.65
31717;BME280;18301;51.076;17.046;2023-04-06T09:40:10;100711.25;;;8.24;48.12
31717;BME280;18301;51.076;17.046;2023-04-06T09:45:12;100711.91;;;8.28;46.79
31717;BME280;18301;51.076;17.046;2023-04-06T09:50:14;100717.94;;;7.55;44.27
31717;BME280;18301;51.076;17.046;2023-04-06T09:55:30;100719.09;;;7.18;46.13
31717;BME280;18301;51.076;17.046;2023-04-06T10:00:43;100717.56;;;7.46;44.20
31717;BME280;18301;51.076;17.046;2023-04-06T10:05:50;100697.41;;;7.54;46.71
31717;BME280;18301;51.076;17.046;2023-04-06T10:10:55;100697.91;;;7.77;42.78
31717;BME280;18301;51.076;17.046;2023-04-06T10:15:57;100699.94;;;8.34;45.06
31717;BME280;18301;51.076;17.046;2023-04-06T10:21:06;100702.03;;;8.59;42.53
31717;BME280;18301;51.076;17.046;2023-04-06T10:26:16;100693.38;;;8.39;43.79
31717;BME280;18301;51.076;17.046;2023-04-06T10:31:25;100690.03;;;8.34;44.77
31717;BME280;18301;51.076;17.046;2023-04-06T10:36:32;100683.47;;;8.40;45.23
31717;BME280;18301;51.076;17.046;2023-04-06T10:41:34;100682.91;;;8.49;44.19
31717;BME280;18301;51.076;17.046;2023-04-06T10:46:36;100672.56;;;8.27;44.13
31717;BME280;18301;51.076;17.046;2023-04-06T10:51:38;100685.59;;;8.19;44.11
31717;BME280;18301;51.076;17.046;2023-04-06T10:56:40;100668.63;;;8.63;43.76
31717;BME280;18301;51.076;17.046;2023-04-06T11:01:44;100664.97;;;8.64;41.34
31717;BME280;18301;51.076;17.046;2023-04-06T11:06:47;100669.09;;;8.25;42.42
31717;BME280;18301;51.076;17.046;2023-04-06T11:11:52;100662.09;;;8.67;43.29
31717;BME280;18301;51.076;17.046;2023-04-06T11:16:54;100664.75;;;8.38;41.50
31717;BME280;18301;51.076;17.046;2023-04-06T11:21:56;100650.59;;;8.93;42.00
31717;BME280;18301;51.076;17.046;2023-04-06T11:27:07;100644.03;;;8.97;42.55
31717;BME280;18301;51.076;17.046;2023-04-06T11:32:09;100639.00;;;9.34;41.84
31717;BME280;18301;51.076;17.046;2023-04-06T11:37:11;100639.59;;;9.11;42.81
31717;BME280;18301;51.076;17.046;2023-04-06T11:42:13;100634.72;;;9.44;42.41
31717;BME280;18301;51.076;17.046;2023-04-06T11:47:14;100630.88;;;9.49;42.37
31717;BME280;18301;51.076;17.046;2023-04-06T11:52:19;100620.22;;;9.33;40.67
31717;BME280;18301;51.076;17.046;2023-04-06T11:57:21;100624.94;;;9.29;42.25
31717;BME280;18301;51.076;17.046;2023-04-06T12:02:26;100620.31;;;9.45;41.58
31717;BME280;18301;51.076;17.046;2023-04-06T12:07:29;100606.66;;;9.34;42.47
31717;BME280;18301;51.076;17.046;2023-04-06T12:12:31;100606.19;;;9.82;42.08
31717;BME280;18301;51.076;17.046;2023-04-06T12:17:32;100607.44;;;9.36;39.89
31717;BME280;18301;51.076;17.046;2023-04-06T12:22:34;100594.38;;;9.30;40.97
31717;BME280;18301;51.076;17.046;2023-04-06T12:27:35;100598.63;;;9.20;40.28
31717;BME280;18301;51.076;17.046;2023-04-06T12:32:37;100584.53;;;9.43;41.54
31717;BME280;18301;51.076;17.046;2023-04-06T12:37:38;100577.53;;;9.54;40.23
31717;BME280;18301;51.076;17.046;2023-04-06T12:42:41;100568.66;;;9.12;39.81
31717;BME280;18301;51.076;17.046;2023-04-06T12:47:42;100562.66;;;9.21;40.24
31717;BME280;18301;51.076;17.046;2023-04-06T12:52:44;100565.09;;;9.38;39.85
31717;BME280;18301;51.076;17.046;2023-04-06T12:57:46;100555.66;;;9.45;39.96
31717;BME280;18301;51.076;17.046;2023-04-06T13:02:47;100549.94;;;9.23;40.51
31717;BME280;18301;51.076;17.046;2023-04-06T13:07:49;100539.28;;;9.49;40.90
31717;BME280;18301;51.076;17.046;2023-04-06T13:12:50;100539.69;;;9.42;39.41
31717;BME280;18301;51.076;17.046;2023-04-06T13:17:53;100533.34;;;9.43;40.67
31717;BME280;18301;51.076;17.046;2023-04-06T13:22:56;100538.16;;;9.78;40.59
31717;BME280;18301;51.076;17.046;2023-04-06T13:27:58;100532.41;;;9.57;39.89
31717;BME280;18301;51.076;17.046;2023-04-06T13:33:00;100528.78;;;9.71;38.43
31717;BME280;18301;51.076;17.046;2023-04-06T13:38:02;100524.25;;;9.84;39.06
31717;BME280;18301;51.076;17.046;2023-04-06T13:43:03;100520.19;;;9.91;39.69
31717;BME280;18301;51.076;17.046;2023-04-06T13:48:05;100515.25;;;10.11;37.97
31717;BME280;18301;51.076;17.046;2023-04-06T13:53:07;100512.63;;;9.97;38.48
31717;BME280;18301;51.076;17.046;2023-04-06T13:58:08;100529.88;;;9.94;38.73
31717;BME280;18301;51.076;17.046;2023-04-06T14:03:10;100516.44;;;10.07;38.83
31717;BME280;18301;51.076;17.046;2023-04-06T14:08:12;100516.06;;;9.73;38.45
31717;BME280;18301;51.076;17.046;2023-04-06T14:13:13;100510.34;;;9.65;38.51
31717;BME280;18301;51.076;17.046;2023-04-06T14:18:15;100512.50;;;9.73;38.56
31717;BME280;18301;51.076;17.046;2023-04-06T14:23:17;100514.97;;;9.63;39.76
31717;BME280;18301;51.076;17.046;2023-04-06T14:28:20;100503.34;;;9.75;38.28
31717;BME280;18301;51.076;17.046;2023-04-06T14:33:22;100494.09;;;9.79;38.96
31717;BME280;18301;51.076;17.046;2023-04-06T14:38:23;100501.53;;;9.88;38.55
31717;BME280;18301;51.076;17.046;2023-04-06T14:43:25;100493.19;;;9.66;39.32
31717;BME280;18301;51.076;17.046;2023-04-06T14:48:27;100497.28;;;9.59;39.62
31717;BME280;18301;51.076;17.046;2023-04-06T14:53:29;100491.34;;;9.66;39.83
31717;BME280;18301;51.076;17.046;2023-04-06T14:58:30;100488.25;;;9.73;40.21
31717;BME280;18301;51.076;17.046;2023-04-06T15:03:32;100491.50;;;9.90;39.58
31717;BME280;18301;51.076;17.046;2023-04-06T15:08:33;100488.16;;;9.74;39.92
31717;BME280;18301;51.076;17.046;2023-04-06T15:13:35;100491.25;;;9.68;39.70
31717;BME280;18301;51.076;17.046;2023-04-06T15:18:37;100489.22;;;9.72;39.82
31717;BME280;18301;51.076;17.046;2023-04-06T15:23:38;100474.44;;;9.64;39.79
31717;BME280;18301;51.076;17.046;2023-04-06T15:28:40;100478.56;;;9.70;38.75
31717;BME280;18301;51.076;17.046;2023-04-06T15:33:42;100489.47;;;9.41;38.68
31717;BME280;18301;51.076;17.046;2023-04-06T15:38:45;100477.63;;;9.44;38.89
31717;BME280;18301;51.076;17.046;2023-04-06T15:43:47;100469.56;;;9.44;39.57
31717;BME280;18301;51.076;17.046;2023-04-06T15:48:50;100476.34;;;9.50;39.48
31717;BME280;18301;51.076;17.046;2023-04-06T15:53:52;100474.06;;;9.31;40.13
31717;BME280;18301;51.076;17.046;2023-04-06T15:58:53;100467.28;;;9.11;40.49
31717;BME280;18301;51.076;17.046;2023-04-06T16:03:55;100469.09;;;8.97;40.41
31717;BME280;18301;51.076;17.046;2023-04-06T16:08:56;100460.09;;;9.11;40.27
31717;BME280;18301;51.076;17.046;2023-04-06T16:13:58;100469.09;;;8.97;40.22
31717;BME280;18301;51.076;17.046;2023-04-06T16:19:00;100470.28;;;8.79;40.50
31717;BME280;18301;51.076;17.046;2023-04-06T16:24:02;100464.44;;;8.87;40.47
31717;BME280;18301;51.076;17.046;2023-04-06T16:29:04;100462.34;;;8.78;40.98
31717;BME280;18301;51.076;17.046;2023-04-06T16:34:06;100463.59;;;8.72;40.92
31717;BME280;18301;51.076;17.046;2023-04-06T16:39:08;100463.00;;;8.67;40.98
31717;BME280;18301;51.076;17.046;2023-04-06T16:44:10;100462.41;;;8.76;41.23
31717;BME280;18301;51.076;17.046;2023-04-06T16:49:13;100468.78;;;8.75;40.61
31717;BME280;18301;51.076;17.046;2023-04-06T16:54:16;100471.88;;;8.55;41.29
31717;BME280;18301;51.076;17.046;2023-04-06T16:59:17;100472.81;;;8.25;41.65
31717;BME280;18301;51.076;17.046;2023-04-06T17:04:19;100466.13;;;8.32;42.21
31717;BME280;18301;51.076;17.046;2023-04-06T17:09:21;100466.97;;;8.33;42.07
31717;BME280;18301;51.076;17.046;2023-04-06T17:14:24;100466.69;;;8.23;42.58
31717;BME280;18301;51.076;17.046;2023-04-06T17:19:26;100461.53;;;8.20;42.59
31717;BME280;18301;51.076;17.046;2023-04-06T17:24:27;100462.25;;;8.36;42.59
31717;BME280;18301;51.076;17.046;2023-04-06T17:29:29;100459.78;;;8.19;42.86
31717;BME280;18301;51.076;17.046;2023-04-06T17:34:30;100470.53;;;8.19;42.92
31717;BME280;18301;51.076;17.046;2023-04-06T17:39:32;100465.53;;;8.13;43.23
31717;BME280;18301;51.076;17.046;2023-04-06T17:44:33;100481.28;;;8.04;43.62
31717;BME280;18301;51.076;17.046;2023-04-06T17:49:35;100482.59;;;7.97;43.75
31717;BME280;18301;51.076;17.046;2023-04-06T17:54:36;100479.34;;;7.92;43.92
31717;BME280;18301;51.076;17.046;2023-04-06T17:59:38;100474.84;;;7.93;44.20
31717;BME280;18301;51.076;17.046;2023-04-06T18:04:44;100488.16;;;7.94;44.48
31717;BME280;18301;51.076;17.046;2023-04-06T18:09:46;100481.25;;;7.90;44.64
31717;BME280;18301;51.076;17.046;2023-04-06T18:14:47;100494.25;;;7.98;44.66
31717;BME280;18301;51.076;17.046;2023-04-06T18:19:48;100493.72;;;7.91;44.83
31717;BME280;18301;51.076;17.046;2023-04-06T18:24:50;100488.34;;;7.91;44.89
31717;BME280;18301;51.076;17.046;2023-04-06T18:29:52;100492.38;;;7.84;44.40
31717;BME280;18301;51.076;17.046;2023-04-06T18:34:53;100500.81;;;7.78;44.97
31717;BME280;18301;51.076;17.046;2023-04-06T18:39:57;100500.63;;;7.81;44.92
31717;BME280;18301;51.076;17.046;2023-04-06T18:44:59;100499.28;;;7.74;45.03
31717;BME280;18301;51.076;17.046;2023-04-06T18:50:01;100503.69;;;7.75;44.88
31717;BME280;18301;51.076;17.046;2023-04-06T18:55:02;100498.50;;;7.72;45.18
31717;BME280;18301;51.076;17.046;2023-04-06T19:00:04;100507.16;;;7.77;45.05
31717;BME280;18301;51.076;17.046;2023-04-06T19:05:06;100504.47;;;7.77;45.42
31717;BME280;18301;51.076;17.046;2023-04-06T19:10:09;100496.69;;;7.72;45.37
31717;BME280;18301;51.076;17.046;2023-04-06T19:15:10;100496.78;;;7.71;45.50
31717;BME280;18301;51.076;17.046;2023-04-06T19:20:12;100495.06;;;7.70;45.72
31717;BME280;18301;51.076;17.046;2023-04-06T19:25:13;100514.81;;;7.69;46.00
31717;BME280;18301;51.076;17.046;2023-04-06T19:30:15;100502.16;;;7.71;46.14
31717;BME280;18301;51.076;17.046;2023-04-06T19:35:17;100508.94;;;7.62;45.83
31717;BME280;18301;51.076;17.046;2023-04-06T19:40:18;100499.59;;;7.53;46.37
31717;BME280;18301;51.076;17.046;2023-04-06T19:45:20;100490.63;;;7.54;46.49
31717;BME280;18301;51.076;17.046;2023-04-06T19:50:21;100497.09;;;7.50;46.39
31717;BME280;18301;51.076;17.046;2023-04-06T19:55:22;100492.09;;;7.44;46.56
31717;BME280;18301;51.076;17.046;2023-04-06T20:00:24;100488.75;;;7.41;46.74
31717;BME280;18301;51.076;17.046;2023-04-06T20:05:25;100491.53;;;7.39;46.70
31717;BME280;18301;51.076;17.046;2023-04-06T20:10:27;100486.41;;;7.65;46.64
31717;BME280;18301;51.076;17.046;2023-04-06T20:15:29;100493.06;;;7.43;46.85
31717;BME280;18301;51.076;17.046;2023-04-06T20:20:31;100489.22;;;7.47;47.10
31717;BME280;18301;51.076;17.046;2023-04-06T20:25:32;100484.69;;;7.64;46.97
31717;BME280;18301;51.076;17.046;2023-04-06T20:30:34;100485.63;;;7.48;47.10
31717;BME280;18301;51.076;17.046;2023-04-06T20:35:35;100488.13;;;7.51;47.24
31717;BME280;18301;51.076;17.046;2023-04-06T20:40:37;100480.44;;;7.45;47.14
31717;BME280;18301;51.076;17.046;2023-04-06T20:45:40;100481.19;;;7.47;46.97
31717;BME280;18301;51.076;17.046;2023-04-06T20:50:41;100476.78;;;7.46;46.86
31717;BME280;18301;51.076;17.046;2023-04-06T20:55:43;100470.59;;;7.30;46.81
31717;BME280;18301;51.076;17.046;2023-04-06T21:00:46;100475.25;;;7.42;47.46
31717;BME280;18301;51.076;17.046;2023-04-06T21:05:54;100453.03;;;7.54;47.36
31717;BME280;18301;51.076;17.046;2023-04-06T21:10:56;100459.13;;;7.42;47.05
31717;BME280;18301;51.076;17.046;2023-04-06T21:15:57;100446.63;;;7.41;47.11
31717;BME280;18301;51.076;17.046;2023-04-06T21:20:59;100459.69;;;7.47;47.20
31717;BME280;18301;51.076;17.046;2023-04-06T21:26:01;100460.25;;;7.38;47.34
31717;BME280;18301;51.076;17.046;2023-04-06T21:31:06;100449.44;;;7.40;47.43
31717;BME280;18301;51.076;17.046;2023-04-06T21:36:09;100449.75;;;7.49;47.15
31717;BME280;18301;51.076;17.046;2023-04-06T21:41:10;100435.91;;;7.41;47.03
31717;BME280;18301;51.076;17.046;2023-04-06T21:46:11;100439.38;;;7.43;47.30
31717;BME280;18301;51.076;17.046;2023-04-06T21:51:20;100438.38;;;7.30;47.68
31717;BME280;18301;51.076;17.046;2023-04-06T21:56:23;100431.09;;;7.32;47.74
31717;BME280;18301;51.076;17.046;2023-04-06T22:01:25;100430.22;;;7.31;48.01
31717;BME280;18301;51.076;17.046;2023-04-06T22:06:28;100424.38;;;7.25;47.84
31717;BME280;18301;51.076;17.046;2023-04-06T22:11:30;100427.84;;;7.27;48.12
31717;BME280;18301;51.076;17.046;2023-04-06T22:16:32;100422.97;;;7.33;48.28
31717;BME280;18301;51.076;17.046;2023-04-06T22:21:33;100419.50;;;7.31;48.38
31717;BME280;18301;51.076;17.046;2023-04-06T22:26:35;100418.25;;;7.37;48.37
31717;BME280;18301;51.076;17.046;2023-04-06T22:31:36;100408.84;;;7.30;48.25
31717;BME280;18301;51.076;17.046;2023-04-06T22:36:38;100409.97;;;7.26;48.61
31717;BME280;18301;51.076;17.046;2023-04-06T22:41:39;100399.25;;;7.26;49.02
31717;BME280;18301;51.076;17.046;2023-04-06T22:46:41;100416.25;;;7.10;49.33
31717;BME280;18301;51.076;17.046;2023-04-06T22:51:43;100413.19;;;7.02;49.67
31717;BME280;18301;51.076;17.046;2023-04-06T22:56:44;100407.28;;;7.11;49.80
31717;BME280;18301;51.076;17.046;2023-04-06T23:01:46;100404.53;;;6.97;51.31
31717;BME280;18301;51.076;17.046;2023-04-06T23:06:47;100411.22;;;6.74;51.95
31717;BME280;18301;51.076;17.046;2023-04-06T23:11:49;100408.91;;;6.52;53.36
31717;BME280;18301;51.076;17.046;2023-04-06T23:16:50;100412.44;;;6.37;54.80
31717;BME280;18301;51.076;17.046;2023-04-06T23:21:52;100418.44;;;6.26;54.82
31717;BME280;18301;51.076;17.046;2023-04-06T23:26:56;100405.03;;;6.42;55.40
31717;BME280;18301;51.076;17.046;2023-04-06T23:31:57;100404.25;;;6.40;57.05
31717;BME280;18301;51.076;17.046;2023-04-06T23:36:59;100398.81;;;6.41;57.23
31717;BME280;18301;51.076;17.046;2023-04-06T23:42:03;100399.06;;;6.37;60.27
31717;BME280;18301;51.076;17.046;2023-04-06T23:47:05;100397.16;;;6.23;60.63
31717;BME280;18301;51.076;17.046;2023-04-06T23:52:06;100392.84;;;6.20;60.77
31717;BME280;18301;51.076;17.046;2023-04-06T23:57:08;100400.69;;;6.23;64.06
